sensor_id;sensor_type;location;lat;lon;timestamp;pressure;altitude;pressure_sealevel;temperature;humidity
9905;BME280;4991;43.566;27.820;2023-03-19T00:01:53;99428.53;;;5.10;100.00
9905;BME280;4991;43.566;27.820;2023-03-19T00:04:18;99428.53;;;5.10;100.00
9905;BME280;4991;43.566;27.820;2023-03-19T00:06:44;99426.34;;;5.07;100.00
9905;BME280;4991;43.566;27.820;2023-03-19T00:09:10;99428.22;;;5.06;100.00
9905;BME280;4991;43.566;27.820;2023-03-19T00:11:36;99421.63;;;4.97;100.00
9905;BME280;4991;43.566;27.820;2023-03-19T00:14:02;99417.66;;;5.05;100.00
9905;BME280;4991;43.566;27.820;2023-03-19T00:16:27;99422.31;;;5.09;100.00
9905;BME280;4991;43.566;27.820;2023-03-19T00:18:53;99415.53;;;5.07;100.00
9905;BME280;4991;43.566;27.820;2023-03-19T00:21:19;99421.25;;;5.10;100.00
9905;BME280;4991;43.566;27.820;2023-03-19T00:23:45;99416.06;;;5.04;100.00
9905;BME280;4991;43.566;27.820;2023-03-19T00:26:11;99414.09;;;4.99;100.00
9905;BME280;4991;43.566;27.820;2023-03-19T00:28:37;99409.56;;;5.05;100.00
9905;BME280;4991;43.566;27.820;2023-03-19T00:31:16;99412.28;;;5.05;100.00
9905;BME280;4991;43.566;27.820;2023-03-19T00:33:41;99412.78;;;5.02;100.00
9905;BME280;4991;43.566;27.820;2023-03-19T00:36:08;99406.50;;;4.96;100.00
9905;BME280;4991;43.566;27.820;2023-03-19T00:38:35;99406.56;;;5.01;100.00
9905;BME280;4991;43.566;27.820;2023-03-19T00:41:01;99408.94;;;4.98;100.00
9905;BME280;4991;43.566;27.820;2023-03-19T00:43:27;99411.31;;;4.94;100.00
9905;BME280;4991;43.566;27.820;2023-03-19T00:45:53;99404.81;;;4.90;100.00
9905;BME280;4991;43.566;27.820;2023-03-19T00:48:19;99400.47;;;4.89;100.00
9905;BME280;4991;43.566;27.820;2023-03-19T00:50:46;99398.84;;;4.88;100.00
9905;BME280;4991;43.566;27.820;2023-03-19T00:53:12;99395.59;;;4.86;100.00
9905;BME280;4991;43.566;27.820;2023-03-19T00:55:37;99397.25;;;4.87;100.00
9905;BME280;4991;43.566;27.820;2023-03-19T00:58:03;99401.25;;;4.85;100.00
9905;BME280;4991;43.566;27.820;2023-03-19T01:00:31;99408.50;;;4.84;100.00
9905;BME280;4991;43.566;27.820;2023-03-19T01:02:57;99412.34;;;4.88;100.00
9905;BME280;4991;43.566;27.820;2023-03-19T01:05:23;99411.22;;;4.84;100.00
9905;BME280;4991;43.566;27.820;2023-03-19T01:07:49;99410.53;;;4.94;100.00
9905;BME280;4991;43.566;27.820;2023-03-19T01:10:19;99405.88;;;4.89;100.00
9905;BME280;4991;43.566;27.820;2023-03-19T01:12:45;99405.88;;;4.89;100.00
9905;BME280;4991;43.566;27.820;2023-03-19T01:15:11;99405.06;;;4.89;100.00
9905;BME280;4991;43.566;27.820;2023-03-19T01:17:37;99406.63;;;4.85;100.00
9905;BME280;4991;43.566;27.820;2023-03-19T01:20:04;99403.09;;;4.84;100.00
9905;BME280;4991;43.566;27.820;2023-03-19T01:22:36;99396.03;;;4.78;100.00
9905;BME280;4991;43.566;27.820;2023-03-19T01:25:03;99391.53;;;4.84;100.00
9905;BME280;4991;43.566;27.820;2023-03-19T01:27:29;99368.94;;;4.68;100.00
9905;BME280;4991;43.566;27.820;2023-03-19T01:29:55;99396.72;;;4.90;100.00
9905;BME280;4991;43.566;27.820;2023-03-19T01:32:20;99399.44;;;4.90;100.00
9905;BME280;4991;43.566;27.820;2023-03-19T01:34:47;99395.97;;;4.95;100.00
9905;BME280;4991;43.566;27.820;2023-03-19T01:37:13;99405.41;;;4.97;100.00
9905;BME280;4991;43.566;27.820;2023-03-19T01:39:39;99391.28;;;4.85;100.00
9905;BME280;4991;43.566;27.820;2023-03-19T01:42:06;99412.59;;;4.87;100.00
9905;BME280;4991;43.566;27.820;2023-03-19T01:44:34;99404.56;;;4.92;100.00
9905;BME280;4991;43.566;27.820;2023-03-19T01:47:03;99413.19;;;4.89;100.00
9905;BME280;4991;43.566;27.820;2023-03-19T01:49:31;99411.59;;;4.93;100.00
9905;BME280;4991;43.566;27.820;2023-03-19T01:51:58;99424.81;;;4.94;100.00
9905;BME280;4991;43.566;27.820;2023-03-19T01:54:26;99428.09;;;4.96;100.00
9905;BME280;4991;43.566;27.820;2023-03-19T01:56:58;99419.16;;;4.96;100.00
9905;BME280;4991;43.566;27.820;2023-03-19T01:59:28;99422.94;;;4.95;100.00
9905;BME280;4991;43.566;27.820;2023-03-19T02:02:02;99415.63;;;4.90;100.00
9905;BME280;4991;43.566;27.820;2023-03-19T02:04:30;99419.41;;;4.94;100.00
9905;BME280;4991;43.566;27.820;2023-03-19T02:06:59;99412.09;;;4.90;100.00
9905;BME280;4991;43.566;27.820;2023-03-19T02:09:28;99412.59;;;4.87;100.00
9905;BME280;4991;43.566;27.820;2023-03-19T02:11:54;99413.50;;;4.92;100.00
9905;BME280;4991;43.566;27.820;2023-03-19T02:14:20;99407.53;;;4.90;100.00
9905;BME280;4991;43.566;27.820;2023-03-19T02:16:46;99422.06;;;4.89;100.00
9905;BME280;4991;43.566;27.820;2023-03-19T02:22:07;99403.94;;;4.85;100.00
9905;BME280;4991;43.566;27.820;2023-03-19T02:24:38;99412.09;;;4.90;100.00
9905;BME280;4991;43.566;27.820;2023-03-19T02:27:06;99413.97;;;4.89;100.00
9905;BME280;4991;43.566;27.820;2023-03-19T02:29:33;99414.53;;;4.91;100.00
9905;BME280;4991;43.566;27.820;2023-03-19T02:31:59;99415.38;;;4.92;100.00
9905;BME280;4991;43.566;27.820;2023-03-19T02:36:57;99417.81;;;4.93;100.00
9905;BME280;4991;43.566;27.820;2023-03-19T02:39:40;99428.28;;;4.90;100.00
9905;BME280;4991;43.566;27.820;2023-03-19T02:42:09;99426.97;;;4.92;100.00
9905;BME280;4991;43.566;27.820;2023-03-19T02:44:36;99429.44;;;4.94;100.00
9905;BME280;4991;43.566;27.820;2023-03-19T02:47:02;99429.38;;;4.89;100.00
9905;BME280;4991;43.566;27.820;2023-03-19T02:49:28;99440.16;;;4.89;100.00
9905;BME280;4991;43.566;27.820;2023-03-19T02:51:54;99443.66;;;4.89;100.00
9905;BME280;4991;43.566;27.820;2023-03-19T02:54:19;99443.66;;;4.89;100.00
9905;BME280;4991;43.566;27.820;2023-03-19T02:56:45;99442.09;;;4.93;100.00
9905;BME280;4991;43.566;27.820;2023-03-19T02:59:11;99439.09;;;4.90;100.00
9905;BME280;4991;43.566;27.820;2023-03-19T03:01:36;99441.59;;;4.96;100.00
9905;BME280;4991;43.566;27.820;2023-03-19T03:04:02;99438.00;;;4.91;100.00
9905;BME280;4991;43.566;27.820;2023-03-19T03:06:29;99438.50;;;4.88;100.00
9905;BME280;4991;43.566;27.820;2023-03-19T03:08:54;99443.41;;;4.91;100.00
9905;BME280;4991;43.566;27.820;2023-03-19T03:11:21;99445.56;;;4.89;100.00
9905;BME280;4991;43.566;27.820;2023-03-19T03:13:47;99445.03;;;4.92;100.00
9905;BME280;4991;43.566;27.820;2023-03-19T03:16:12;99447.19;;;4.90;100.00
9905;BME280;4991;43.566;27.820;2023-03-19T03:18:38;99451.00;;;4.94;100.00
9905;BME280;4991;43.566;27.820;2023-03-19T03:21:04;99456.97;;;4.96;100.00
9905;BME280;4991;43.566;27.820;2023-03-19T03:23:29;99456.66;;;4.92;100.00
9905;BME280;4991;43.566;27.820;2023-03-19T03:25:55;99460.09;;;4.88;100.00
9905;BME280;4991;43.566;27.820;2023-03-19T03:28:22;99464.19;;;4.90;100.00
9905;BME280;4991;43.566;27.820;2023-03-19T03:30:49;99468.19;;;4.88;100.00
9905;BME280;4991;43.566;27.820;2023-03-19T03:33:14;99459.59;;;4.91;100.00
9905;BME280;4991;43.566;27.820;2023-03-19T03:35:42;99464.13;;;4.85;100.00
9905;BME280;4991;43.566;27.820;2023-03-19T03:38:07;99465.50;;;4.88;100.00
9905;BME280;4991;43.566;27.820;2023-03-19T03:40:34;99471.47;;;4.90;100.00
9905;BME280;4991;43.566;27.820;2023-03-19T03:43:00;99467.63;;;4.86;100.00
9905;BME280;4991;43.566;27.820;2023-03-19T03:45:26;99470.63;;;4.89;100.00
9905;BME280;4991;43.566;27.820;2023-03-19T03:47:52;99476.34;;;4.93;100.00
9905;BME280;4991;43.566;27.820;2023-03-19T03:50:18;99473.66;;;4.93;100.00
9905;BME280;4991;43.566;27.820;2023-03-19T03:52:43;99480.06;;;4.87;100.00
9905;BME280;4991;43.566;27.820;2023-03-19T03:55:09;99479.00;;;4.88;100.00
9905;BME280;4991;43.566;27.820;2023-03-19T03:57:35;99475.50;;;4.87;100.00
9905;BME280;4991;43.566;27.820;2023-03-19T04:00:00;99479.16;;;4.81;100.00
9905;BME280;4991;43.566;27.820;2023-03-19T04:02:26;99476.09;;;4.73;100.00
9905;BME280;4991;43.566;27.820;2023-03-19T04:04:52;99489.97;;;4.81;100.00
9905;BME280;4991;43.566;27.820;2023-03-19T04:07:18;99480.94;;;4.71;100.00
9905;BME280;4991;43.566;27.820;2023-03-19T04:09:44;99485.91;;;4.79;100.00
9905;BME280;4991;43.566;27.820;2023-03-19T04:12:11;99491.63;;;4.82;100.00
9905;BME280;4991;43.566;27.820;2023-03-19T04:14:38;99496.84;;;4.89;100.00
9905;BME280;4991;43.566;27.820;2023-03-19T04:17:04;99495.88;;;4.78;100.00
9905;BME280;4991;43.566;27.820;2023-03-19T04:19:30;99492.97;;;4.85;100.00
9905;BME280;4991;43.566;27.820;2023-03-19T04:21:57;99481.53;;;4.78;100.00
9905;BME280;4991;43.566;27.820;2023-03-19T04:24:24;99494.00;;;4.79;100.00
9905;BME280;4991;43.566;27.820;2023-03-19T04:26:50;99492.34;;;4.78;100.00
9905;BME280;4991;43.566;27.820;2023-03-19T04:29:17;99494.53;;;4.81;100.00
9905;BME280;4991;43.566;27.820;2023-03-19T04:31:43;99483.75;;;4.81;100.00
9905;BME280;4991;43.566;27.820;2023-03-19T04:34:10;99483.94;;;4.74;100.00
9905;BME280;4991;43.566;27.820;2023-03-19T04:36:37;99485.31;;;4.77;100.00
9905;BME280;4991;43.566;27.820;2023-03-19T04:39:03;99490.47;;;4.78;100.00
9905;BME280;4991;43.566;27.820;2023-03-19T04:41:29;99485.00;;;4.73;100.00
9905;BME280;4991;43.566;27.820;2023-03-19T04:43:55;99497.66;;;4.73;100.00
9905;BME280;4991;43.566;27.820;2023-03-19T04:46:21;99500.13;;;4.74;100.00
9905;BME280;4991;43.566;27.820;2023-03-19T04:48:47;99496.03;;;4.72;100.00
9905;BME280;4991;43.566;27.820;2023-03-19T04:51:13;99500.28;;;4.68;100.00
9905;BME280;4991;43.566;27.820;2023-03-19T04:53:39;99498.16;;;4.70;100.00
9905;BME280;4991;43.566;27.820;2023-03-19T04:56:06;99497.59;;;4.68;100.00
9905;BME280;4991;43.566;27.820;2023-03-19T04:58:32;99500.03;;;4.69;100.00
9905;BME280;4991;43.566;27.820;2023-03-19T05:00:58;99499.75;;;4.66;100.00
9905;BME280;4991;43.566;27.820;2023-03-19T05:03:24;99497.53;;;4.63;100.00
9905;BME280;4991;43.566;27.820;2023-03-19T05:05:52;99497.66;;;4.73;100.00
9905;BME280;4991;43.566;27.820;2023-03-19T05:08:18;99500.69;;;4.76;100.00
9905;BME280;4991;43.566;27.820;2023-03-19T05:10:44;99497.19;;;4.76;100.00
9905;BME280;4991;43.566;27.820;2023-03-19T05:13:10;99500.50;;;4.83;100.00
9905;BME280;4991;43.566;27.820;2023-03-19T05:15:35;99495.44;;;4.86;100.00
9905;BME280;4991;43.566;27.820;2023-03-19T05:18:01;99503.84;;;4.90;100.00
9905;BME280;4991;43.566;27.820;2023-03-19T05:20:27;99496.84;;;4.89;100.00
9905;BME280;4991;43.566;27.820;2023-03-19T05:22:52;99491.44;;;4.89;100.00
9905;BME280;4991;43.566;27.820;2023-03-19T05:25:18;99508.22;;;4.96;100.00
9905;BME280;4991;43.566;27.820;2023-03-19T05:27:44;99514.22;;;4.98;100.00
9905;BME280;4991;43.566;27.820;2023-03-19T05:30:10;99514.22;;;4.98;100.00
9905;BME280;4991;43.566;27.820;2023-03-19T05:32:37;99512.16;;;5.05;100.00
9905;BME280;4991;43.566;27.820;2023-03-19T05:35:05;99505.41;;;5.07;100.00
9905;BME280;4991;43.566;27.820;2023-03-19T05:37:30;99502.22;;;4.89;100.00
9905;BME280;4991;43.566;27.820;2023-03-19T05:39:56;99514.59;;;5.06;100.00
9905;BME280;4991;43.566;27.820;2023-03-19T05:42:22;99502.44;;;5.04;100.00
9905;BME280;4991;43.566;27.820;2023-03-19T05:44:47;99505.25;;;5.14;100.00
9905;BME280;4991;43.566;27.820;2023-03-19T05:47:13;99507.69;;;5.15;100.00
9905;BME280;4991;43.566;27.820;2023-03-19T05:49:39;99515.03;;;5.20;100.00
9905;BME280;4991;43.566;27.820;2023-03-19T05:52:04;99495.88;;;5.21;100.00
9905;BME280;4991;43.566;27.820;2023-03-19T05:54:30;99492.88;;;5.18;100.00
9905;BME280;4991;43.566;27.820;2023-03-19T05:56:56;99492.63;;;5.19;100.00
9905;BME280;4991;43.566;27.820;2023-03-19T05:59:21;99493.31;;;5.32;100.00
9905;BME280;4991;43.566;27.820;2023-03-19T06:01:47;99493.69;;;5.40;100.00
9905;BME280;4991;43.566;27.820;2023-03-19T06:04:13;99489.06;;;5.41;100.00
9905;BME280;4991;43.566;27.820;2023-03-19T06:06:39;99483.25;;;5.49;100.00
9905;BME280;4991;43.566;27.820;2023-03-19T06:09:04;99493.72;;;5.45;100.00
9905;BME280;4991;43.566;27.820;2023-03-19T06:11:30;99492.97;;;5.50;100.00
9905;BME280;4991;43.566;27.820;2023-03-19T06:13:56;99485.44;;;5.52;100.00
9905;BME280;4991;43.566;27.820;2023-03-19T06:16:22;99494.09;;;5.80;100.00
9905;BME280;4991;43.566;27.820;2023-03-19T06:18:47;99493.72;;;5.93;100.00
9905;BME280;4991;43.566;27.820;2023-03-19T06:21:13;99494.56;;;5.99;100.00
9905;BME280;4991;43.566;27.820;2023-03-19T06:23:39;99491.19;;;6.13;100.00
9905;BME280;4991;43.566;27.820;2023-03-19T06:26:04;99481.50;;;6.22;100.00
9905;BME280;4991;43.566;27.820;2023-03-19T06:28:31;99476.66;;;6.24;100.00
9905;BME280;4991;43.566;27.820;2023-03-19T06:30:57;99491.53;;;6.27;100.00
9905;BME280;4991;43.566;27.820;2023-03-19T06:33:23;99493.19;;;6.28;100.00
9905;BME280;4991;43.566;27.820;2023-03-19T06:35:52;99481.59;;;6.32;100.00
9905;BME280;4991;43.566;27.820;2023-03-19T06:38:18;99485.53;;;6.51;100.00
9905;BME280;4991;43.566;27.820;2023-03-19T06:40:44;99487.03;;;6.37;100.00
9905;BME280;4991;43.566;27.820;2023-03-19T06:43:09;99496.38;;;6.62;100.00
9905;BME280;4991;43.566;27.820;2023-03-19T06:45:35;99490.81;;;6.36;100.00
9905;BME280;4991;43.566;27.820;2023-03-19T06:48:01;99492.25;;;6.49;100.00
9905;BME280;4991;43.566;27.820;2023-03-19T06:50:26;99498.75;;;6.48;100.00
9905;BME280;4991;43.566;27.820;2023-03-19T06:52:52;99500.66;;;6.52;100.00
9905;BME280;4991;43.566;27.820;2023-03-19T06:55:17;99499.63;;;6.58;100.00
9905;BME280;4991;43.566;27.820;2023-03-19T06:57:48;99498.41;;;6.39;100.00
9905;BME280;4991;43.566;27.820;2023-03-19T07:00:15;99505.53;;;6.50;100.00
9905;BME280;4991;43.566;27.820;2023-03-19T07:02:41;99503.31;;;6.42;100.00
9905;BME280;4991;43.566;27.820;2023-03-19T07:05:06;99495.63;;;6.29;100.00
9905;BME280;4991;43.566;27.820;2023-03-19T07:07:32;99496.75;;;6.38;100.00
9905;BME280;4991;43.566;27.820;2023-03-19T07:09:58;99497.25;;;6.30;100.00
9905;BME280;4991;43.566;27.820;2023-03-19T07:12:24;99506.28;;;6.41;100.00
9905;BME280;4991;43.566;27.820;2023-03-19T07:14:53;99515.06;;;6.58;100.00
9905;BME280;4991;43.566;27.820;2023-03-19T07:17:21;99515.06;;;6.58;100.00
9905;BME280;4991;43.566;27.820;2023-03-19T07:19:46;99513.47;;;6.67;100.00
9905;BME280;4991;43.566;27.820;2023-03-19T07:22:12;99518.59;;;6.64;100.00
9905;BME280;4991;43.566;27.820;2023-03-19T07:24:37;99521.38;;;6.74;100.00
9905;BME280;4991;43.566;27.820;2023-03-19T07:27:03;99506.44;;;6.66;100.00
9905;BME280;4991;43.566;27.820;2023-03-19T07:29:29;99516.88;;;6.89;100.00
9905;BME280;4991;43.566;27.820;2023-03-19T07:31:56;99514.59;;;6.71;100.00
9905;BME280;4991;43.566;27.820;2023-03-19T07:34:22;99525.97;;;6.68;100.00
9905;BME280;4991;43.566;27.820;2023-03-19T07:36:47;99528.28;;;6.54;100.00
9905;BME280;4991;43.566;27.820;2023-03-19T07:39:13;99521.13;;;6.38;100.00
9905;BME280;4991;43.566;27.820;2023-03-19T07:41:39;99521.47;;;6.47;100.00
9905;BME280;4991;43.566;27.820;2023-03-19T07:44:05;99508.72;;;6.42;100.00
9905;BME280;4991;43.566;27.820;2023-03-19T07:46:31;99520.44;;;6.53;100.00
9905;BME280;4991;43.566;27.820;2023-03-19T07:48:56;99519.75;;;6.73;100.00
9905;BME280;4991;43.566;27.820;2023-03-19T07:51:22;99517.03;;;6.73;100.00
9905;BME280;4991;43.566;27.820;2023-03-19T07:53:47;99522.53;;;6.83;100.00
9905;BME280;4991;43.566;27.820;2023-03-19T07:56:13;99523.63;;;6.92;100.00
9905;BME280;4991;43.566;27.820;2023-03-19T07:58:39;99532.91;;;7.01;100.00
9905;BME280;4991;43.566;27.820;2023-03-19T08:01:06;99533.75;;;7.01;100.00
9905;BME280;4991;43.566;27.820;2023-03-19T08:03:31;99531.69;;;6.82;100.00
9905;BME280;4991;43.566;27.820;2023-03-19T08:05:57;99534.16;;;6.83;100.00
9905;BME280;4991;43.566;27.820;2023-03-19T08:08:23;99535.97;;;6.68;100.00
9905;BME280;4991;43.566;27.820;2023-03-19T08:10:51;99542.28;;;6.88;100.00
9905;BME280;4991;43.566;27.820;2023-03-19T08:13:17;99539.56;;;6.78;100.00
9905;BME280;4991;43.566;27.820;2023-03-19T08:15:43;99531.09;;;6.70;100.00
9905;BME280;4991;43.566;27.820;2023-03-19T08:18:08;99523.28;;;6.73;100.00
9905;BME280;4991;43.566;27.820;2023-03-19T08:20:34;99531.44;;;6.78;100.00
9905;BME280;4991;43.566;27.820;2023-03-19T08:23:00;99539.88;;;6.92;100.00
9905;BME280;4991;43.566;27.820;2023-03-19T08:25:25;99535.06;;;6.99;100.00
9905;BME280;4991;43.566;27.820;2023-03-19T08:27:52;99541.16;;;7.21;100.00
9905;BME280;4991;43.566;27.820;2023-03-19T08:30:17;99537.13;;;7.33;100.00
9905;BME280;4991;43.566;27.820;2023-03-19T08:32:43;99545.19;;;7.18;100.00
9905;BME280;4991;43.566;27.820;2023-03-19T08:35:13;99538.69;;;7.19;100.00
9905;BME280;4991;43.566;27.820;2023-03-19T08:37:39;99533.03;;;7.21;100.00
9905;BME280;4991;43.566;27.820;2023-03-19T08:40:05;99530.56;;;7.14;100.00
9905;BME280;4991;43.566;27.820;2023-03-19T08:42:31;99531.25;;;7.00;100.00
9905;BME280;4991;43.566;27.820;2023-03-19T08:44:57;99532.78;;;7.27;100.00
9905;BME280;4991;43.566;27.820;2023-03-19T08:47:23;99526.22;;;7.18;100.00
9905;BME280;4991;43.566;27.820;2023-03-19T08:49:50;99521.63;;;7.19;100.00
9905;BME280;4991;43.566;27.820;2023-03-19T08:52:16;99520.47;;;7.05;100.00
9905;BME280;4991;43.566;27.820;2023-03-19T08:54:42;99529.13;;;7.02;100.00
9905;BME280;4991;43.566;27.820;2023-03-19T08:57:08;99523.41;;;6.98;100.00
9905;BME280;4991;43.566;27.820;2023-03-19T08:59:36;99527.25;;;7.07;100.00
9905;BME280;4991;43.566;27.820;2023-03-19T09:02:02;99518.66;;;7.20;100.00
9905;BME280;4991;43.566;27.820;2023-03-19T09:04:28;99516.28;;;7.34;100.00
9905;BME280;4991;43.566;27.820;2023-03-19T09:06:54;99506.53;;;7.33;100.00
9905;BME280;4991;43.566;27.820;2023-03-19T09:09:22;99518.06;;;7.13;100.00
9905;BME280;4991;43.566;27.820;2023-03-19T09:11:48;99524.84;;;7.11;100.00
9905;BME280;4991;43.566;27.820;2023-03-19T09:14:14;99513.44;;;7.04;100.00
9905;BME280;4991;43.566;27.820;2023-03-19T09:16:45;99511.81;;;7.03;100.00
9905;BME280;4991;43.566;27.820;2023-03-19T09:19:10;99521.44;;;7.35;100.00
9905;BME280;4991;43.566;27.820;2023-03-19T09:21:36;99507.66;;;7.47;100.00
9905;BME280;4991;43.566;27.820;2023-03-19T09:24:02;99521.50;;;7.55;100.00
9905;BME280;4991;43.566;27.820;2023-03-19T09:26:28;99509.47;;;7.31;100.00
9905;BME280;4991;43.566;27.820;2023-03-19T09:28:55;99517.94;;;7.50;100.00
9905;BME280;4991;43.566;27.820;2023-03-19T09:31:20;99518.78;;;7.50;100.00
9905;BME280;4991;43.566;27.820;2023-03-19T09:33:46;99519.13;;;7.74;100.00
9905;BME280;4991;43.566;27.820;2023-03-19T09:36:11;99513.13;;;7.62;100.00
9905;BME280;4991;43.566;27.820;2023-03-19T09:38:37;99517.75;;;7.76;100.00
9905;BME280;4991;43.566;27.820;2023-03-19T09:41:12;99515.34;;;7.90;100.00
9905;BME280;4991;43.566;27.820;2023-03-19T09:46:18;99501.25;;;7.93;100.00
9905;BME280;4991;43.566;27.820;2023-03-19T09:48:57;99506.41;;;8.00;100.00
9905;BME280;4991;43.566;27.820;2023-03-19T09:51:40;99505.84;;;8.03;100.00
9905;BME280;4991;43.566;27.820;2023-03-19T09:54:21;99503.97;;;8.03;100.00
9905;BME280;4991;43.566;27.820;2023-03-19T09:56:50;99505.59;;;7.99;100.00
9905;BME280;4991;43.566;27.820;2023-03-19T09:59:16;99508.31;;;7.89;100.00
9905;BME280;4991;43.566;27.820;2023-03-19T10:01:47;99500.97;;;8.05;100.00
9905;BME280;4991;43.566;27.820;2023-03-19T10:04:38;99497.22;;;8.16;100.00
9905;BME280;4991;43.566;27.820;2023-03-19T10:07:18;99494.50;;;8.36;100.00
9905;BME280;4991;43.566;27.820;2023-03-19T10:15:32;99491.78;;;8.16;100.00
9905;BME280;4991;43.566;27.820;2023-03-19T10:18:03;99485.56;;;8.30;100.00
9905;BME280;4991;43.566;27.820;2023-03-19T10:20:53;99476.88;;;8.33;100.00
9905;BME280;4991;43.566;27.820;2023-03-19T10:26:23;99462.19;;;8.49;100.00
9905;BME280;4991;43.566;27.820;2023-03-19T10:29:03;99459.16;;;8.71;100.00
9905;BME280;4991;43.566;27.820;2023-03-19T10:32:15;99472.19;;;8.69;100.00
9905;BME280;4991;43.566;27.820;2023-03-19T10:34:28;99468.44;;;8.50;100.00
9905;BME280;4991;43.566;27.820;2023-03-19T10:39:24;99460.53;;;8.68;100.00
9905;BME280;4991;43.566;27.820;2023-03-19T10:44:49;99460.25;;;8.70;100.00
9905;BME280;4991;43.566;27.820;2023-03-19T10:47:16;99458.09;;;8.67;100.00
9905;BME280;4991;43.566;27.820;2023-03-19T10:49:44;99454.50;;;8.91;100.00
9905;BME280;4991;43.566;27.820;2023-03-19T10:54:44;99443.53;;;9.17;100.00
9905;BME280;4991;43.566;27.820;2023-03-19T10:57:23;99435.09;;;9.23;100.00
9905;BME280;4991;43.566;27.820;2023-03-19T10:59:49;99442.25;;;8.94;100.00
9905;BME280;4991;43.566;27.820;2023-03-19T11:02:20;99437.63;;;8.94;100.00
9905;BME280;4991;43.566;27.820;2023-03-19T11:05:33;99424.25;;;9.13;100.00
9905;BME280;4991;43.566;27.820;2023-03-19T11:07:35;99411.28;;;9.00;100.00
9905;BME280;4991;43.566;27.820;2023-03-19T11:10:01;99427.41;;;9.35;100.00
9905;BME280;4991;43.566;27.820;2023-03-19T11:12:34;99423.25;;;9.48;100.00
9905;BME280;4991;43.566;27.820;2023-03-19T11:15:02;99426.59;;;9.35;100.00
9905;BME280;4991;43.566;27.820;2023-03-19T11:20:30;99419.59;;;9.18;100.00
9905;BME280;4991;43.566;27.820;2023-03-19T11:22:57;99415.25;;;9.18;100.00
9905;BME280;4991;43.566;27.820;2023-03-19T11:25:35;99413.22;;;9.43;100.00
9905;BME280;4991;43.566;27.820;2023-03-19T11:28:11;99400.44;;;8.95;100.00
9905;BME280;4991;43.566;27.820;2023-03-19T11:36:02;99407.28;;;9.36;100.00
9905;BME280;4991;43.566;27.820;2023-03-19T11:38:43;99406.22;;;9.32;100.00
9905;BME280;4991;43.566;27.820;2023-03-19T11:41:33;99403.19;;;9.39;100.00
9905;BME280;4991;43.566;27.820;2023-03-19T11:44:17;99395.97;;;9.63;100.00
9905;BME280;4991;43.566;27.820;2023-03-19T11:47:09;99396.47;;;9.70;100.00
9905;BME280;4991;43.566;27.820;2023-03-19T11:52:24;99393.81;;;9.60;100.00
9905;BME280;4991;43.566;27.820;2023-03-19T12:00:50;99382.34;;;10.30;100.00
9905;BME280;4991;43.566;27.820;2023-03-19T12:03:46;99374.84;;;10.46;100.00
9905;BME280;4991;43.566;27.820;2023-03-19T12:09:02;99379.06;;;10.57;100.00
9905;BME280;4991;43.566;27.820;2023-03-19T12:14:16;99367.88;;;10.82;100.00
9905;BME280;4991;43.566;27.820;2023-03-19T12:28:07;99361.50;;;11.10;100.00
9905;BME280;4991;43.566;27.820;2023-03-19T12:30:47;99353.91;;;11.81;100.00
9905;BME280;4991;43.566;27.820;2023-03-19T12:33:40;99360.25;;;12.54;100.00
9905;BME280;4991;43.566;27.820;2023-03-19T12:36:12;99353.34;;;12.30;100.00
9905;BME280;4991;43.566;27.820;2023-03-19T12:38:46;99355.59;;;12.41;100.00
9905;BME280;4991;43.566;27.820;2023-03-19T12:41:22;99359.31;;;12.59;100.00
9905;BME280;4991;43.566;27.820;2023-03-19T12:44:11;99354.38;;;12.61;100.00
9905;BME280;4991;43.566;27.820;2023-03-19T12:46:43;99362.59;;;13.02;100.00
9905;BME280;4991;43.566;27.820;2023-03-19T12:49:16;99347.16;;;13.19;100.00
9905;BME280;4991;43.566;27.820;2023-03-19T12:51:50;99355.31;;;14.74;100.00
9905;BME280;4991;43.566;27.820;2023-03-19T12:54:40;99339.78;;;15.17;100.00
9905;BME280;4991;43.566;27.820;2023-03-19T12:57:18;99350.16;;;14.11;100.00
9905;BME280;4991;43.566;27.820;2023-03-19T12:59:52;99345.41;;;14.03;100.00
9905;BME280;4991;43.566;27.820;2023-03-19T13:02:43;99347.84;;;15.13;100.00
9905;BME280;4991;43.566;27.820;2023-03-19T13:10:39;99324.13;;;17.36;100.00
9905;BME280;4991;43.566;27.820;2023-03-19T13:13:30;99346.28;;;15.46;100.00
9905;BME280;4991;43.566;27.820;2023-03-19T13:16:05;99341.75;;;15.85;100.00
9905;BME280;4991;43.566;27.820;2023-03-19T13:18:39;99332.59;;;17.11;100.00
9905;BME280;4991;43.566;27.820;2023-03-19T13:21:21;99332.91;;;18.12;100.00
9905;BME280;4991;43.566;27.820;2023-03-19T13:23:57;99325.91;;;18.15;100.00
9905;BME280;4991;43.566;27.820;2023-03-19T13:26:26;99329.59;;;18.87;100.00
9905;BME280;4991;43.566;27.820;2023-03-19T13:29:08;99315.13;;;19.82;100.00
9905;BME280;4991;43.566;27.820;2023-03-19T13:31:35;99321.22;;;19.60;99.09
9905;BME280;4991;43.566;27.820;2023-03-19T13:34:06;99317.63;;;19.32;100.00
9905;BME280;4991;43.566;27.820;2023-03-19T13:36:39;99312.97;;;19.48;99.90
9905;BME280;4991;43.566;27.820;2023-03-19T13:39:12;99300.00;;;19.12;100.00
9905;BME280;4991;43.566;27.820;2023-03-19T13:47:00;99295.44;;;21.04;95.33
9905;BME280;4991;43.566;27.820;2023-03-19T13:49:28;99288.53;;;20.79;90.65
9905;BME280;4991;43.566;27.820;2023-03-19T13:51:59;99278.53;;;20.00;96.49
9905;BME280;4991;43.566;27.820;2023-03-19T13:54:37;99284.94;;;19.89;93.48
9905;BME280;4991;43.566;27.820;2023-03-19T13:57:16;99276.53;;;20.13;94.57
9905;BME280;4991;43.566;27.820;2023-03-19T13:59:45;99275.56;;;20.21;94.78
9905;BME280;4991;43.566;27.820;2023-03-19T14:07:34;99275.63;;;20.87;89.09
9905;BME280;4991;43.566;27.820;2023-03-19T14:12:50;99274.22;;;20.15;91.84
9905;BME280;4991;43.566;27.820;2023-03-19T14:15:27;99273.81;;;19.73;94.10
9905;BME280;4991;43.566;27.820;2023-03-19T14:18:03;99268.88;;;20.53;91.06
9905;BME280;4991;43.566;27.820;2023-03-19T14:20:42;99272.03;;;21.36;85.37
9905;BME280;4991;43.566;27.820;2023-03-19T14:26:00;99271.97;;;21.71;80.82
9905;BME280;4991;43.566;27.820;2023-03-19T14:31:00;99269.41;;;21.62;79.63
9905;BME280;4991;43.566;27.820;2023-03-19T14:33:52;99270.53;;;20.89;82.23
9905;BME280;4991;43.566;27.820;2023-03-19T14:36:21;99267.53;;;19.21;91.33
9905;BME280;4991;43.566;27.820;2023-03-19T14:38:54;99269.31;;;19.81;90.96
9905;BME280;4991;43.566;27.820;2023-03-19T14:41:22;99265.22;;;19.90;90.75